Time;durP1;ratioP1;P1;durP2;ratioP2;P2;SDS_P1;SDS_P2;PMS_P1;PMS_P2;Temp;Humidity;BMP_temperature;BMP_pressure;BME280_temperature;BME280_humidity;BME280_pressure;Samples;Min_cycle;Max_cycle;Signal;HPM_P1;HPM_P2
2023/06/05 07:27:59;;;;;;;4.68;2.55;;;25.00;95.80;;;;;;4940070;29;20229;-71
2023/06/05 07:30:26;;;;;;;5.60;2.30;;;25.00;95.90;;;;;;4953937;29;20235;-70
2023/06/05 07:32:53;;;;;;;5.75;2.50;;;24.40;96.60;;;;;;4939365;29;20225;-68
2023/06/05 07:35:20;;;;;;;4.93;2.60;;;24.50;96.20;;;;;;4934832;29;20217;-69
2023/06/05 07:37:48;;;;;;;4.07;2.42;;;24.30;96.70;;;;;;4948257;29;20539;-70
2023/06/05 07:40:15;;;;;;;5.18;2.47;;;25.00;95.80;;;;;;4954008;29;20679;-70
2023/06/05 07:42:41;;;;;;;5.43;2.42;;;25.30;96.00;;;;;;4953442;29;20279;-70
2023/06/05 07:45:11;;;;;;;5.40;2.95;;;25.10;95.90;;;;;;4937007;29;20212;-70
2023/06/05 07:47:37;;;;;;;4.55;2.85;;;24.90;96.20;;;;;;4946428;29;20210;-71
2023/06/05 07:50:06;;;;;;;5.30;2.55;;;24.90;95.60;;;;;;4953798;29;20263;-69
2023/06/05 07:52:33;;;;;;;5.78;2.78;;;24.80;96.20;;;;;;4953685;29;20204;-69
2023/06/05 07:55:00;;;;;;;4.70;2.92;;;24.40;96.30;;;;;;4953950;28;20215;-70
2023/06/05 07:57:28;;;;;;;6.75;3.20;;;24.50;96.50;;;;;;4957344;29;20559;-68
2023/06/05 07:59:55;;;;;;;5.35;2.67;;;24.50;96.00;;;;;;4957253;29;20302;-69
2023/06/05 08:02:23;;;;;;;5.68;2.80;;;24.40;96.10;;;;;;4957260;29;20283;-69
2023/06/05 08:04:50;;;;;;;4.53;2.80;;;24.10;96.40;;;;;;4957267;29;20208;-70
2023/06/05 08:07:17;;;;;;;4.35;2.78;;;23.80;97.20;;;;;;4957063;29;20211;-69
2023/06/05 08:09:44;;;;;;;4.20;3.00;;;24.10;97.00;;;;;;4957046;29;20208;-71
2023/06/05 08:12:11;;;;;;;2.85;2.22;;;24.20;97.10;;;;;;4956772;29;20204;-70
2023/06/05 08:14:38;;;;;;;5.15;3.00;;;24.80;96.80;;;;;;4956721;29;20263;-70
2023/06/05 08:17:05;;;;;;;7.38;2.80;;;25.40;95.60;;;;;;4956487;29;20204;-70
2023/06/05 08:19:33;;;;;;;4.10;2.92;;;25.60;95.20;;;;;;4956985;29;20211;-68
2023/06/05 08:22:00;;;;;;;4.63;2.60;;;25.20;95.60;;;;;;4955130;29;20230;-67
2023/06/05 08:24:28;;;;;;;4.50;2.70;;;24.90;95.80;;;;;;4957635;29;20314;-67
2023/06/05 08:26:55;;;;;;;4.35;2.70;;;24.90;96.30;;;;;;4956924;29;20212;-68
2023/06/05 08:29:22;;;;;;;4.68;2.47;;;24.80;95.80;;;;;;4956940;29;20295;-69
2023/06/05 08:31:49;;;;;;;4.50;2.72;;;25.10;95.60;;;;;;4956863;29;20238;-68
2023/06/05 08:34:16;;;;;;;6.40;2.90;;;24.60;95.90;;;;;;4956733;29;20234;-67
2023/06/05 08:36:44;;;;;;;5.00;2.60;;;24.40;96.10;;;;;;4956857;29;20210;-67
2023/06/05 08:39:12;;;;;;;4.72;2.97;;;24.80;96.40;;;;;;4956982;29;20223;-68
2023/06/05 08:41:39;;;;;;;5.85;3.13;;;25.20;95.80;;;;;;4956857;29;20222;-67
2023/06/05 08:44:06;;;;;;;6.55;3.22;;;25.40;95.40;;;;;;4956464;29;20235;-67
2023/06/05 08:46:40;;;;;;;5.35;2.72;;;25.30;95.20;;;;;;4956598;29;20208;-67
2023/06/05 08:49:11;;;;;;;5.38;3.10;;;24.70;95.50;;;;;;4956648;29;20216;-67
2023/06/05 08:51:40;;;;;;;4.18;2.70;;;24.60;96.20;;;;;;4956571;29;20246;-68
2023/06/05 08:54:12;;;;;;;6.05;3.00;;;24.50;96.50;;;;;;4956369;29;20228;-68
2023/06/05 08:56:39;;;;;;;5.28;3.22;;;24.60;96.20;;;;;;4956515;29;20693;-68
2023/06/05 08:59:07;;;;;;;4.55;2.80;;;24.80;95.70;;;;;;4956262;29;20582;-67
2023/06/05 09:01:35;;;;;;;6.35;3.20;;;24.50;96.20;;;;;;4956478;29;20247;-68
2023/06/05 09:04:02;;;;;;;5.15;2.97;;;24.50;95.90;;;;;;4956383;29;20231;-67
2023/06/05 09:06:32;;;;;;;5.20;3.20;;;24.70;95.80;;;;;;4956014;28;20215;-68
2023/06/05 09:09:01;;;;;;;3.97;3.13;;;24.90;95.70;;;;;;4955964;29;20239;-67
2023/06/05 09:11:30;;;;;;;4.97;3.00;;;24.60;96.30;;;;;;4956328;29;20298;-67
2023/06/05 09:13:58;;;;;;;5.35;3.42;;;24.70;95.70;;;;;;4955677;29;20227;-68
2023/06/05 09:16:34;;;;;;;4.22;3.00;;;24.60;95.90;;;;;;4956333;29;20207;-69
2023/06/05 09:19:01;;;;;;;6.22;3.05;;;24.50;95.80;;;;;;4955913;29;20208;-68
2023/06/05 09:21:32;;;;;;;5.32;3.10;;;24.90;95.60;;;;;;4956211;29;20219;-68
2023/06/05 09:24:13;;;;;;;5.80;2.97;;;25.30;95.10;;;;;;4955681;29;20223;-68
2023/06/05 09:26:57;;;;;;;6.07;3.40;;;25.20;95.90;;;;;;4955817;29;20212;-67
2023/06/05 09:29:26;;;;;;;6.10;3.22;;;25.20;95.60;;;;;;4955975;29;20204;-68
2023/06/05 09:31:54;;;;;;;5.15;3.35;;;25.20;95.40;;;;;;4955909;29;20242;-67
2023/06/05 09:34:25;;;;;;;5.35;3.33;;;25.10;95.20;;;;;;4955720;29;20232;-67
2023/06/05 09:36:54;;;;;;;5.65;3.20;;;24.90;95.70;;;;;;4955853;29;20299;-67
2023/06/05 09:39:22;;;;;;;5.05;2.90;;;24.60;95.90;;;;;;4955510;29;20670;-68
2023/06/05 09:41:51;;;;;;;4.35;3.00;;;24.50;96.90;;;;;;4955592;29;20294;-67
2023/06/05 09:44:19;;;;;;;5.15;2.90;;;24.50;96.00;;;;;;4955616;29;20223;-67
2023/06/05 09:46:54;;;;;;;3.13;2.60;;;24.50;96.50;;;;;;4955685;29;20208;-67
2023/06/05 09:49:22;;;;;;;5.70;3.60;;;24.80;96.30;;;;;;4955451;29;20207;-68
2023/06/05 09:51:49;;;;;;;4.30;2.63;;;24.60;95.70;;;;;;4955736;29;20265;-67
2023/06/05 09:54:16;;;;;;;5.07;2.70;;;24.40;95.70;;;;;;4955546;29;20698;-68
2023/06/05 09:56:48;;;;;;;4.72;3.33;;;23.80;96.60;;;;;;4955705;29;20204;-68
2023/06/05 09:59:24;;;;;;;5.00;3.00;;;24.00;96.10;;;;;;4955543;29;20607;-67
2023/06/05 10:01:52;;;;;;;4.10;2.58;;;24.00;97.00;;;;;;4955278;29;20214;-68
2023/06/05 10:04:22;;;;;;;7.45;3.50;;;24.10;96.40;;;;;;4955465;29;20223;-68
2023/06/05 10:06:51;;;;;;;5.68;2.85;;;24.20;96.30;;;;;;4955447;29;20290;-68
2023/06/05 10:09:19;;;;;;;6.85;3.00;;;24.10;96.30;;;;;;4955049;29;20215;-68
2023/06/05 10:11:49;;;;;;;5.60;3.20;;;23.80;96.40;;;;;;4954764;29;20326;-68
2023/06/05 10:14:16;;;;;;;5.43;2.90;;;23.40;96.80;;;;;;4955035;29;20255;-67
2023/06/05 10:16:45;;;;;;;3.58;2.38;;;23.10;96.40;;;;;;4955312;29;20218;-68
2023/06/05 10:19:14;;;;;;;4.50;2.40;;;23.00;97.10;;;;;;4954454;28;20214;-68
2023/06/05 10:21:42;;;;;;;5.10;2.70;;;22.70;97.70;;;;;;4955061;29;20211;-69
2023/06/05 10:24:15;;;;;;;5.13;2.70;;;22.90;98.30;;;;;;4955214;29;20265;-68
2023/06/05 10:27:05;;;;;;;5.63;3.03;;;23.10;96.60;;;;;;4954778;29;20226;-69
2023/06/05 10:29:57;;;;;;;3.95;2.53;;;23.10;96.40;;;;;;4955063;29;20611;-68
2023/06/05 10:32:38;;;;;;;5.15;3.08;;;23.00;97.50;;;;;;4954669;29;20698;-70
2023/06/05 10:35:17;;;;;;;4.38;2.47;;;23.10;96.80;;;;;;4954473;29;20203;-70
2023/06/05 10:37:57;;;;;;;4.28;2.85;;;23.10;95.90;;;;;;4955220;29;20231;-70
2023/06/05 10:40:26;;;;;;;6.22;2.60;;;22.70;96.70;;;;;;4954954;29;20212;-69
2023/06/05 10:42:53;;;;;;;3.70;2.47;;;22.70;97.30;;;;;;4954639;29;20238;-70
2023/06/05 10:45:31;;;;;;;5.03;2.95;;;22.70;97.00;;;;;;4954813;29;20218;-70
2023/06/05 10:48:00;;;;;;;5.72;2.08;;;22.70;97.00;;;;;;4954568;29;20214;-71
2023/06/05 10:50:31;;;;;;;3.05;1.83;;;22.70;97.60;;;;;;4954787;29;20211;-69
2023/06/05 10:52:59;;;;;;;3.60;2.10;;;22.70;96.60;;;;;;4954433;29;20729;-70
2023/06/05 10:55:27;;;;;;;2.80;1.88;;;22.70;95.80;;;;;;4954690;29;20207;-69
2023/06/05 10:58:09;;;;;;;7.30;2.53;;;22.60;96.30;;;;;;4954155;29;20660;-71
2023/06/05 11:00:37;;;;;;;5.22;2.20;;;22.90;96.70;;;;;;4954862;29;20396;-70
2023/06/05 11:03:07;;;;;;;5.68;2.47;;;22.90;96.90;;;;;;4954377;29;20725;-70
2023/06/05 11:05:35;;;;;;;4.70;2.08;;;22.90;95.90;;;;;;4954777;29;20607;-70
2023/06/05 11:08:14;;;;;;;3.50;2.30;;;23.00;95.90;;;;;;4954682;29;20620;-70
2023/06/05 11:11:05;;;;;;;4.05;1.90;;;22.90;96.30;;;;;;4954358;29;20243;-70
2023/06/05 11:13:58;;;;;;;3.80;2.60;;;23.00;96.30;;;;;;4954557;29;20239;-70
2023/06/05 11:16:32;;;;;;;3.25;2.20;;;23.10;96.40;;;;;;4954713;29;20219;-70
2023/06/05 11:19:38;;;;;;;3.47;2.15;;;23.20;95.30;;;;;;4954689;29;20566;-71
2023/06/05 11:22:11;;;;;;;2.95;1.92;;;23.20;96.10;;;;;;4954495;29;20626;-70
2023/06/05 11:24:38;;;;;;;6.07;1.58;;;23.30;96.10;;;;;;4954500;29;20235;-71
2023/06/05 11:27:08;;;;;;;6.97;2.20;;;23.30;95.50;;;;;;4954371;29;20741;-71
2023/06/05 11:29:37;;;;;;;5.10;2.78;;;23.30;96.00;;;;;;4955586;28;20236;-70
2023/06/05 11:32:12;;;;;;;2.53;1.60;;;23.30;96.10;;;;;;4958119;29;20790;-70
2023/06/05 11:34:45;;;;;;;3.05;1.70;;;23.50;95.20;;;;;;4958101;29;20227;-70
2023/06/05 11:37:19;;;;;;;2.40;1.67;;;23.30;95.50;;;;;;4958218;29;20208;-69
2023/06/05 11:39:45;;;;;;;4.70;1.90;;;23.40;96.40;;;;;;4957777;29;20667;-70
2023/06/05 11:42:12;;;;;;;7.30;2.00;;;23.60;95.60;;;;;;4957767;29;20212;-70
2023/06/05 11:44:39;;;;;;;4.05;2.47;;;23.80;96.00;;;;;;4957942;29;20232;-71
2023/06/05 11:47:07;;;;;;;4.35;1.85;;;23.60;95.30;;;;;;4957730;29;20678;-71
2023/06/05 11:49:33;;;;;;;3.00;1.90;;;23.70;95.60;;;;;;4957709;29;20208;-69
2023/06/05 11:52:02;;;;;;;3.55;2.17;;;23.80;94.90;;;;;;4957372;29;20793;-70
2023/06/05 11:54:33;;;;;;;2.47;1.60;;;24.00;95.20;;;;;;4957249;29;20266;-71
2023/06/05 11:57:07;;;;;;;2.72;2.03;;;23.90;94.60;;;;;;4957196;29;20663;-70
2023/06/05 11:59:35;;;;;;;3.08;1.77;;;23.50;94.80;;;;;;4957470;29;20307;-69
2023/06/05 12:02:03;;;;;;;6.90;2.50;;;23.30;95.90;;;;;;4957388;29;20216;-70
2023/06/05 12:04:30;;;;;;;5.30;1.60;;;23.50;95.70;;;;;;4957180;29;20228;-70
2023/06/05 12:06:59;;;;;;;4.30;1.98;;;23.70;94.90;;;;;;4957134;29;20204;-68
2023/06/05 12:09:27;;;;;;;3.53;1.98;;;23.90;95.50;;;;;;4954548;29;20208;-69
2023/06/05 12:12:06;;;;;;;2.53;1.42;;;24.00;94.00;;;;;;4954027;29;20238;-70
2023/06/05 12:14:34;;;;;;;3.80;1.73;;;24.00;94.50;;;;;;4956232;29;20560;-70
2023/06/05 12:17:02;;;;;;;3.53;1.55;;;23.70;94.00;;;;;;4956496;29;20204;-70
2023/06/05 12:19:30;;;;;;;2.30;1.55;;;23.80;93.90;;;;;;4956052;29;20235;-69
2023/06/05 12:22:04;;;;;;;2.47;1.50;;;23.70;94.60;;;;;;4956454;29;20244;-72
2023/06/05 12:24:32;;;;;;;3.20;1.73;;;23.80;94.90;;;;;;4956267;29;20310;-70
2023/06/05 12:27:01;;;;;;;2.80;1.40;;;24.20;94.80;;;;;;4956493;29;20215;-69
2023/06/05 12:29:29;;;;;;;2.05;1.17;;;24.30;93.80;;;;;;4955152;29;20612;-68
2023/06/05 12:31:57;;;;;;;4.45;1.60;;;24.30;93.10;;;;;;4956087;29;20635;-69
2023/06/05 12:34:41;;;;;;;2.97;1.63;;;24.40;93.80;;;;;;4956131;29;20232;-70
2023/06/05 12:37:08;;;;;;;2.33;1.50;;;24.40;93.30;;;;;;4956353;29;20207;-70
2023/06/05 12:39:37;;;;;;;2.35;1.83;;;24.40;93.60;;;;;;4954447;29;20212;-69
2023/06/05 12:42:04;;;;;;;3.05;1.90;;;24.20;93.30;;;;;;4955010;28;20306;-68
2023/06/05 12:44:31;;;;;;;5.93;1.42;;;24.00;93.90;;;;;;4955964;29;20232;-68
2023/06/05 12:46:58;;;;;;;1.95;1.42;;;24.10;93.80;;;;;;4956656;29;20299;-68
2023/06/05 12:49:25;;;;;;;2.78;1.80;;;24.20;93.20;;;;;;4954168;29;20320;-68
2023/06/05 12:51:52;;;;;;;2.05;1.45;;;24.10;93.40;;;;;;4936620;29;20233;-69
2023/06/05 12:54:19;;;;;;;1.42;1.00;;;24.00;93.70;;;;;;4936363;29;20236;-70
2023/06/05 12:56:47;;;;;;;4.65;1.40;;;24.00;93.10;;;;;;4955118;29;20208;-71
2023/06/05 12:59:14;;;;;;;2.42;1.20;;;23.70;92.40;;;;;;4955910;29;20210;-69
2023/06/05 13:01:41;;;;;;;2.00;1.20;;;23.70;93.30;;;;;;4954319;29;20594;-70
2023/06/05 13:04:08;;;;;;;1.67;1.00;;;23.70;92.80;;;;;;4956047;29;20238;-69
2023/06/05 13:06:35;;;;;;;3.60;1.10;;;23.80;93.10;;;;;;4948634;29;20232;-69
2023/06/05 13:09:03;;;;;;;3.55;1.33;;;24.10;93.80;;;;;;4936870;29;20209;-68
2023/06/05 13:11:30;;;;;;;2.80;1.38;;;24.30;92.70;;;;;;4951737;29;20679;-69
2023/06/05 13:13:58;;;;;;;3.65;1.48;;;24.50;94.00;;;;;;4949865;29;20238;-69
2023/06/05 13:16:25;;;;;;;2.72;1.30;;;24.30;93.30;;;;;;4954660;29;20216;-68
2023/06/05 13:18:52;;;;;;;2.00;1.27;;;24.10;93.90;;;;;;4954939;29;20655;-68
2023/06/05 13:21:19;;;;;;;4.57;1.30;;;24.00;93.60;;;;;;4950998;29;20222;-68
2023/06/05 13:23:45;;;;;;;2.13;1.35;;;24.00;93.20;;;;;;4955286;29;20244;-68
2023/06/05 13:26:12;;;;;;;2.97;1.20;;;24.20;93.00;;;;;;4954425;29;20212;-68
2023/06/05 13:28:39;;;;;;;2.13;1.40;;;24.40;92.90;;;;;;4954310;29;20200;-68
2023/06/05 13:31:07;;;;;;;1.65;1.20;;;24.40;93.00;;;;;;4954686;29;20243;-68
2023/06/05 13:33:34;;;;;;;2.45;1.27;;;24.20;93.10;;;;;;4954653;29;20243;-68
2023/06/05 13:36:01;;;;;;;2.88;1.33;;;24.20;93.50;;;;;;4953809;29;20207;-69
2023/06/05 13:38:28;;;;;;;2.83;1.00;;;24.30;93.20;;;;;;4954225;29;20594;-68
2023/06/05 13:40:55;;;;;;;1.70;1.13;;;24.40;93.80;;;;;;4954438;29;20303;-68
2023/06/05 13:43:22;;;;;;;1.15;0.93;;;24.20;91.40;;;;;;4953427;29;20228;-69
2023/06/05 13:45:49;;;;;;;1.85;1.30;;;24.10;91.20;;;;;;4954811;29;20223;-69
2023/06/05 13:48:17;;;;;;;1.42;1.10;;;23.90;92.20;;;;;;4955433;29;20208;-69
2023/06/05 13:50:44;;;;;;;1.65;1.25;;;23.90;92.10;;;;;;4955240;29;20702;-70
2023/06/05 13:53:11;;;;;;;3.45;1.23;;;24.00;92.20;;;;;;4954400;28;20291;-69
2023/06/05 13:55:39;;;;;;;2.67;1.63;;;24.00;92.10;;;;;;4952516;29;20266;-69
2023/06/05 13:58:06;;;;;;;3.13;1.50;;;24.10;92.20;;;;;;4952803;29;20215;-68
2023/06/05 14:00:34;;;;;;;2.45;1.42;;;24.20;92.20;;;;;;4953967;29;20263;-69
2023/06/05 14:03:01;;;;;;;3.13;1.20;;;23.90;91.40;;;;;;4953319;29;20238;-69
2023/06/05 14:05:29;;;;;;;2.50;1.00;;;24.00;92.30;;;;;;4953361;29;20295;-69
2023/06/05 14:07:57;;;;;;;3.22;2.00;;;24.40;92.50;;;;;;4953833;29;20556;-69
2023/06/05 14:10:25;;;;;;;1.48;1.08;;;24.50;92.60;;;;;;4953434;29;20295;-69
2023/06/05 14:12:53;;;;;;;1.73;1.38;;;24.50;92.10;;;;;;4952976;29;20316;-70
2023/06/05 14:15:20;;;;;;;2.15;1.30;;;24.50;91.90;;;;;;4953292;29;20548;-70
2023/06/05 14:17:48;;;;;;;2.10;1.50;;;24.30;92.10;;;;;;4934016;29;20300;-69
2023/06/05 14:20:15;;;;;;;2.10;1.42;;;24.20;92.30;;;;;;4934745;29;20223;-69
2023/06/05 14:22:43;;;;;;;2.58;1.70;;;24.40;91.50;;;;;;4934632;29;20231;-69
2023/06/05 14:25:11;;;;;;;3.28;1.40;;;24.60;91.90;;;;;;4933858;29;20219;-69
2023/06/05 14:27:38;;;;;;;2.88;1.33;;;24.60;91.80;;;;;;4934113;29;20620;-69
2023/06/05 14:30:07;;;;;;;1.60;0.80;;;24.60;92.60;;;;;;4934781;29;20212;-69
2023/06/05 14:32:33;;;;;;;1.48;1.10;;;24.60;93.00;;;;;;4933705;29;20271;-69
2023/06/05 14:35:00;;;;;;;2.35;1.20;;;24.40;91.90;;;;;;4934619;29;20295;-68
2023/06/05 14:37:28;;;;;;;2.22;1.27;;;24.30;92.00;;;;;;4934399;29;20564;-69
2023/06/05 14:39:56;;;;;;;2.15;1.20;;;24.40;92.20;;;;;;4934210;29;20216;-69
2023/06/05 14:42:23;;;;;;;2.35;1.48;;;24.20;92.40;;;;;;4934304;29;20216;-69
2023/06/05 14:44:50;;;;;;;2.45;1.33;;;24.40;92.60;;;;;;4934282;29;20579;-69
2023/06/05 14:47:17;;;;;;;2.63;1.35;;;24.30;92.40;;;;;;4933659;29;20216;-68
2023/06/05 14:49:44;;;;;;;3.08;1.30;;;24.30;91.80;;;;;;4934386;29;20213;-68
2023/06/05 14:52:10;;;;;;;2.72;1.30;;;24.30;92.30;;;;;;4934319;29;20247;-69
2023/06/05 14:54:37;;;;;;;1.90;1.30;;;24.20;91.80;;;;;;4933684;29;20239;-69
2023/06/05 14:57:06;;;;;;;2.55;1.30;;;24.40;92.10;;;;;;4933616;29;20222;-69
2023/06/05 14:59:33;;;;;;;4.55;1.25;;;24.40;91.80;;;;;;4934246;29;20672;-70
2023/06/05 15:02:00;;;;;;;2.25;1.60;;;24.40;91.90;;;;;;4935155;29;20212;-69
2023/06/05 15:04:28;;;;;;;2.50;1.27;;;24.40;92.40;;;;;;4936363;29;20315;-69
2023/06/05 15:06:54;;;;;;;2.72;1.17;;;24.50;92.30;;;;;;4939392;29;20575;-69
2023/06/05 15:09:22;;;;;;;2.25;1.52;;;24.30;92.80;;;;;;4939514;29;20209;-69
2023/06/05 15:11:49;;;;;;;1.98;1.35;;;24.20;92.50;;;;;;4939260;29;20228;-70
2023/06/05 15:14:18;;;;;;;3.47;1.10;;;24.30;92.90;;;;;;4939085;29;20247;-70
2023/06/05 15:16:45;;;;;;;4.25;1.50;;;24.40;93.20;;;;;;4938796;29;20664;-68
2023/06/05 15:19:12;;;;;;;3.47;1.30;;;24.40;92.00;;;;;;4938933;29;20259;-69
2023/06/05 15:21:39;;;;;;;2.63;1.23;;;24.40;93.10;;;;;;4938889;29;20216;-69
2023/06/05 15:24:07;;;;;;;1.95;1.20;;;24.40;93.00;;;;;;4938956;29;20268;-69
2023/06/05 15:26:34;;;;;;;2.42;1.27;;;24.40;92.70;;;;;;4938900;29;20316;-69
2023/06/05 15:29:00;;;;;;;1.40;1.30;;;24.50;92.40;;;;;;4938644;29;20209;-69
2023/06/05 15:31:29;;;;;;;3.67;1.30;;;24.60;92.10;;;;;;4939006;29;20686;-69
2023/06/05 15:33:55;;;;;;;2.60;1.10;;;24.50;92.20;;;;;;4939022;29;20241;-69
2023/06/05 15:36:22;;;;;;;2.92;1.20;;;24.50;92.10;;;;;;4938995;29;20303;-69
2023/06/05 15:38:49;;;;;;;2.03;1.52;;;24.50;91.70;;;;;;4939068;29;20669;-68
2023/06/05 15:41:16;;;;;;;4.60;1.70;;;24.40;91.50;;;;;;4939045;29;20555;-69
2023/06/05 15:43:43;;;;;;;1.80;1.25;;;24.10;92.10;;;;;;4939119;29;20260;-69
2023/06/05 15:46:10;;;;;;;3.47;1.65;;;24.30;92.40;;;;;;4938739;29;20555;-68
2023/06/05 15:48:38;;;;;;;3.83;1.25;;;24.30;92.00;;;;;;4938967;29;20205;-68
2023/06/05 15:51:05;;;;;;;3.28;1.30;;;24.30;91.90;;;;;;4938386;29;20609;-69
2023/06/05 15:53:32;;;;;;;1.60;1.30;;;24.40;92.60;;;;;;4938199;29;20719;-68
2023/06/05 15:56:01;;;;;;;4.40;1.40;;;24.50;92.70;;;;;;4938175;29;20209;-69
2023/06/05 15:58:27;;;;;;;2.15;1.20;;;24.60;92.60;;;;;;4938120;29;20209;-69
2023/06/05 16:00:54;;;;;;;3.53;1.45;;;24.50;92.50;;;;;;4938309;29;20688;-69
2023/06/05 16:03:21;;;;;;;3.38;1.60;;;24.50;92.70;;;;;;4938249;29;20588;-68
2023/06/05 16:05:49;;;;;;;2.40;1.40;;;24.20;92.80;;;;;;4938301;29;20205;-69
2023/06/05 16:08:19;;;;;;;2.55;1.63;;;24.00;92.80;;;;;;4938516;29;20209;-69
2023/06/05 16:10:46;;;;;;;2.30;1.40;;;24.00;93.20;;;;;;4937601;29;20209;-69
2023/06/05 16:13:14;;;;;;;5.22;2.08;;;23.90;93.60;;;;;;4937932;29;20247;-69
2023/06/05 16:15:41;;;;;;;2.17;1.48;;;24.10;93.70;;;;;;4937540;29;20551;-68
2023/06/05 16:18:08;;;;;;;2.17;1.60;;;24.20;93.30;;;;;;4937865;29;20213;-69
2023/06/05 16:20:35;;;;;;;3.13;1.70;;;24.20;93.90;;;;;;4943503;29;20212;-69
2023/06/05 16:23:03;;;;;;;4.70;1.60;;;24.20;93.70;;;;;;4957018;29;20228;-69
2023/06/05 16:25:30;;;;;;;4.32;1.80;;;24.10;94.30;;;;;;4953512;29;20212;-69
2023/06/05 16:27:56;;;;;;;2.55;1.40;;;24.10;93.80;;;;;;4943002;29;20232;-68
2023/06/05 16:30:23;;;;;;;2.35;1.70;;;24.00;94.40;;;;;;4937624;29;20217;-68
2023/06/05 16:32:50;;;;;;;2.28;1.42;;;23.90;94.20;;;;;;4937121;29;20240;-68
2023/06/05 16:35:18;;;;;;;2.45;1.20;;;24.00;94.50;;;;;;4945277;29;20208;-69
2023/06/05 16:37:45;;;;;;;4.05;1.30;;;24.00;94.50;;;;;;4940928;29;20225;-69
2023/06/05 16:40:13;;;;;;;3.42;1.50;;;23.90;93.70;;;;;;4947232;29;20842;-69
2023/06/05 16:42:40;;;;;;;2.22;1.40;;;23.80;94.00;;;;;;4954871;29;20233;-69
2023/06/05 16:45:08;;;;;;;2.45;1.58;;;23.70;94.40;;;;;;4944229;29;20666;-69
2023/06/05 16:47:35;;;;;;;2.92;1.63;;;23.80;94.70;;;;;;4951475;29;20299;-69
2023/06/05 16:50:02;;;;;;;3.33;1.65;;;23.80;94.80;;;;;;4955886;29;20210;-69
2023/06/05 16:52:29;;;;;;;3.00;1.80;;;23.80;95.10;;;;;;4956501;29;20622;-69
2023/06/05 16:54:56;;;;;;;4.43;1.75;;;23.90;95.30;;;;;;4955816;29;20235;-70
2023/06/05 16:57:24;;;;;;;4.05;1.80;;;23.80;95.70;;;;;;4955129;29;20207;-69
2023/06/05 16:59:51;;;;;;;5.28;1.70;;;23.80;95.90;;;;;;4955760;29;20215;-69
2023/06/05 17:02:18;;;;;;;3.53;1.88;;;23.80;96.00;;;;;;4956093;29;20204;-69
2023/06/05 17:04:44;;;;;;;3.67;1.88;;;23.70;95.80;;;;;;4954550;29;20243;-69
2023/06/05 17:07:11;;;;;;;4.60;2.15;;;23.60;96.30;;;;;;4955966;29;20244;-69
2023/06/05 17:09:38;;;;;;;2.95;1.73;;;23.40;96.70;;;;;;4956165;29;20279;-70
2023/06/05 17:12:06;;;;;;;2.40;1.70;;;23.30;97.10;;;;;;4955855;29;20296;-69
2023/06/05 17:14:35;;;;;;;2.58;1.67;;;23.20;97.30;;;;;;4954120;29;20236;-69
2023/06/05 17:17:01;;;;;;;3.83;1.88;;;23.30;97.80;;;;;;4956109;29;20671;-69
2023/06/05 17:19:28;;;;;;;2.40;1.65;;;23.30;97.40;;;;;;4955838;29;20201;-69
2023/06/05 17:21:55;;;;;;;2.72;1.85;;;23.20;97.20;;;;;;4955879;29;20258;-69
2023/06/05 17:24:24;;;;;;;3.95;1.70;;;23.20;97.40;;;;;;4955709;29;20590;-69
2023/06/05 17:26:51;;;;;;;2.85;1.92;;;23.10;97.40;;;;;;4955563;28;20216;-69
2023/06/05 17:29:17;;;;;;;3.00;2.15;;;23.10;97.50;;;;;;4955736;29;20550;-71
2023/06/05 17:31:51;;;;;;;3.20;1.80;;;23.00;97.50;;;;;;4955497;29;20302;-69
2023/06/05 17:34:19;;;;;;;4.00;1.77;;;23.00;97.90;;;;;;4955894;29;20356;-70
2023/06/05 17:36:46;;;;;;;3.40;1.60;;;22.80;98.00;;;;;;4955893;29;20212;-69
2023/06/05 17:39:13;;;;;;;2.80;1.90;;;22.80;98.20;;;;;;4955850;29;20208;-69
2023/06/05 17:41:39;;;;;;;3.50;2.38;;;22.70;98.70;;;;;;4955703;29;20685;-69
2023/06/05 17:44:06;;;;;;;5.30;1.98;;;22.70;98.40;;;;;;4955456;29;20315;-69
2023/06/05 17:46:33;;;;;;;3.83;1.77;;;22.70;98.30;;;;;;4955569;29;20212;-69
2023/06/05 17:49:01;;;;;;;4.35;1.58;;;22.60;98.70;;;;;;4955704;29;20212;-69
2023/06/05 17:51:28;;;;;;;4.30;2.03;;;22.60;98.40;;;;;;4955642;29;20632;-70
2023/06/05 17:53:55;;;;;;;5.22;1.80;;;22.60;98.50;;;;;;4955333;29;20236;-69
2023/06/05 17:56:22;;;;;;;2.63;1.67;;;22.50;98.80;;;;;;4955514;29;20204;-68
2023/06/05 17:58:49;;;;;;;2.85;1.50;;;22.50;98.70;;;;;;4955500;29;20583;-69
2023/06/05 18:01:16;;;;;;;4.07;1.63;;;22.60;98.90;;;;;;4955301;29;20268;-68
2023/06/05 18:03:43;;;;;;;4.55;2.03;;;22.50;98.90;;;;;;4955182;29;20227;-68
2023/06/05 18:06:11;;;;;;;4.63;1.92;;;22.30;98.90;;;;;;4955147;29;20571;-69
2023/06/05 18:08:38;;;;;;;3.53;2.05;;;22.20;99.00;;;;;;4955280;29;20296;-69
2023/06/05 18:11:05;;;;;;;2.03;1.50;;;22.10;99.20;;;;;;4955204;29;20742;-69
2023/06/05 18:13:32;;;;;;;2.67;1.65;;;22.00;99.40;;;;;;4954799;29;20232;-69
2023/06/05 18:15:59;;;;;;;3.20;1.92;;;22.10;99.60;;;;;;4954979;29;20243;-69
2023/06/05 18:18:26;;;;;;;3.70;2.10;;;22.00;99.20;;;;;;4955058;29;20216;-69
2023/06/05 18:20:53;;;;;;;2.90;1.80;;;22.00;99.30;;;;;;4954948;29;20567;-70
2023/06/05 18:23:21;;;;;;;3.25;1.58;;;21.80;99.20;;;;;;4955014;29;20324;-69
2023/06/05 18:25:48;;;;;;;3.50;2.10;;;21.70;99.50;;;;;;4954790;29;20218;-70
2023/06/05 18:28:15;;;;;;;2.60;1.50;;;21.70;99.50;;;;;;4954464;29;20218;-69
2023/06/05 18:30:42;;;;;;;4.82;1.83;;;21.70;99.50;;;;;;4954829;29;20302;-70
2023/06/05 18:33:11;;;;;;;4.05;1.92;;;21.70;99.80;;;;;;4954479;29;20216;-69
2023/06/05 18:35:38;;;;;;;3.30;1.80;;;21.60;99.70;;;;;;4954380;29;20571;-70
2023/06/05 18:38:04;;;;;;;7.03;1.92;;;21.40;99.60;;;;;;4948911;29;20685;-71
